Thunder radar more information blitzortung!


Radar de pluja more information rain snow radar


Visita la nostra xarxa de llocs de meteo:

Template documentation
and downloads

And another site



No particular awareness of the weather is required.    There are no Weather-warnings

Pagina Historial Weather Underground text

Diari Resum Novembre 3, 2017 Unitats:  Mètric    Imperial   Tant
« Previous Dia
SegĂźent Dia »
Diari Setmana Mensual Anual Personalitzada
  Maxima: Minima: Media:
Temperatura: 21.9 °C 11.7 °C 17.4 °C
Punt de rosada: 15.4 °C 10.3 °C 13.2 °C
Humitat: 92 % 63 % 77 %
Wind Speed: 13.0 km/h 0.0 km/h 4.4 km/h
RĂ fegues de vent: 13.0 km/h - -
Vent:- - South
Pression baro: 1017.8 hPa 1012.8 hPa -
Precipitacions: 0.0 mm    
Historical Graphs
 
 
Dades de taula per Novembre 3, 2017
Temps Temperatura Punt de rosada Pression baro Vent Wind Speed RĂ fegues de vent Humitat Rainfall Rate (Hourly)
00:01 13.8 °C 10.9 °C 1017.8 hPa Calm     83 % 0.0 mm
00:06 13.8 °C 10.9 °C 1017.8 hPa ENE 1.9 km/h 1.9 km/h 83 % 0.0 mm
02:50 11.7 °C 10.3 °C 1016.8 hPa SW 1.6 km/h   91 % 0.0 mm
03:00 11.7 °C 10.3 °C 1016.8 hPa Calm   3.2 km/h 91 % 0.0 mm
03:10 11.9 °C 10.5 °C 1017.8 hPa SSW 1.6 km/h 1.6 km/h 91 % 0.0 mm
03:20 12.1 °C 10.7 °C 1017.8 hPa Calm   1.6 km/h 91 % 0.0 mm
03:30 12.4 °C 11.1 °C 1016.8 hPa Calm   1.6 km/h 92 % 0.0 mm
03:40 12.7 °C 11.3 °C 1016.8 hPa WSW 3.2 km/h 3.2 km/h 91 % 0.0 mm
03:50 13.0 °C 11.6 °C 1016.8 hPa Calm   4.8 km/h 91 % 0.0 mm
04:00 13.4 °C 11.8 °C 1016.8 hPa North 3.2 km/h 6.4 km/h 90 % 0.0 mm
04:10 13.7 °C 11.9 °C 1016.8 hPa North 3.2 km/h 4.8 km/h 89 % 0.0 mm
04:20 13.7 °C 11.9 °C 1016.8 hPa Calm   3.2 km/h 89 % 0.0 mm
04:30 14.0 °C 12.1 °C 1016.8 hPa NNE 3.2 km/h 3.2 km/h 88 % 0.0 mm
04:40 14.6 °C 12.4 °C 1016.8 hPa NE 1.6 km/h 3.2 km/h 87 % 0.0 mm
04:50 15.2 °C 12.9 °C 1016.8 hPa NE 1.6 km/h 3.2 km/h 86 % 0.0 mm
10:56 15.4 °C 12.7 °C 1016.8 hPa ENE 1.9 km/h 1.9 km/h 84 % 0.0 mm
10:57 15.4 °C 12.7 °C 1016.8 hPa ENE 1.9 km/h 1.9 km/h 84 % 0.0 mm
11:02 15.7 °C 13.0 °C 1016.8 hPa NNE 4.2 km/h 4.2 km/h 84 % 0.0 mm
11:07 15.8 °C 13.1 °C 1016.8 hPa NNE 5.6 km/h 5.6 km/h 84 % 0.0 mm
11:12 16.0 °C 13.1 °C 1016.8 hPa NNE 3.7 km/h 3.7 km/h 83 % 0.0 mm
11:17 16.3 °C 13.4 °C 1016.8 hPa ENE 5.0 km/h 5.0 km/h 83 % 0.0 mm
11:22 16.4 °C 13.3 °C 1016.8 hPa NE 7.4 km/h 7.4 km/h 82 % 0.0 mm
11:27 16.6 °C 13.5 °C 1016.8 hPa ENE 3.7 km/h 3.9 km/h 82 % 0.0 mm
11:32 16.7 °C 13.6 °C 1016.8 hPa North 3.7 km/h 3.7 km/h 82 % 0.0 mm
11:37 17.0 °C 13.5 °C 1015.8 hPa ENE 5.6 km/h 5.6 km/h 80 % 0.0 mm
11:42 17.2 °C 13.7 °C 1015.8 hPa ENE 3.7 km/h 3.7 km/h 80 % 0.0 mm
11:47 17.1 °C 13.4 °C 1015.8 hPa ENE 5.6 km/h 5.6 km/h 79 % 0.0 mm
11:52 17.1 °C 13.4 °C 1015.8 hPa NE 7.4 km/h 7.4 km/h 79 % 0.0 mm
11:57 17.4 °C 13.5 °C 1015.8 hPa NE 6.9 km/h 6.9 km/h 78 % 0.0 mm
12:02 17.3 °C 13.4 °C 1015.8 hPa NNE 7.4 km/h 7.4 km/h 78 % 0.0 mm
12:07 17.5 °C 13.6 °C 1015.8 hPa NNE 5.8 km/h 5.8 km/h 78 % 0.0 mm
12:12 17.6 °C 13.5 °C 1015.8 hPa NW 3.7 km/h   77 % 0.0 mm
12:17 18.0 °C 13.9 °C 1015.8 hPa ENE 5.8 km/h 5.8 km/h 77 % 0.0 mm
12:22 18.0 °C 13.7 °C 1015.8 hPa ESE 6.1 km/h 6.1 km/h 76 % 0.0 mm
12:27 18.3 °C 14.2 °C 1015.8 hPa ENE 5.6 km/h 5.6 km/h 77 % 0.0 mm
12:32 18.7 °C 14.6 °C 1015.8 hPa ENE 5.0 km/h 5.0 km/h 77 % 0.0 mm
12:37 18.8 °C 14.5 °C 1015.8 hPa NW 3.7 km/h 3.7 km/h 76 % 0.0 mm
12:42 18.8 °C 14.1 °C 1015.8 hPa ENE 7.4 km/h 7.4 km/h 74 % 0.0 mm
12:47 19.2 °C 14.4 °C 1015.8 hPa ESE 3.7 km/h 3.7 km/h 74 % 0.0 mm
12:52 19.2 °C 14.2 °C 1015.8 hPa SE 5.6 km/h 5.6 km/h 73 % 0.0 mm
12:57 19.4 °C 14.4 °C 1015.8 hPa ESE 4.7 km/h 4.7 km/h 73 % 0.0 mm
13:02 19.4 °C 14.4 °C 1015.8 hPa NE 3.7 km/h 3.7 km/h 73 % 0.0 mm
13:07 19.8 °C 15.2 °C 1014.8 hPa SW 3.7 km/h 3.7 km/h 75 % 0.0 mm
13:12 20.5 °C 15.3 °C 1014.8 hPa West 5.6 km/h 5.6 km/h 72 % 0.0 mm
13:17 20.5 °C 15.3 °C 1014.8 hPa SSE 7.4 km/h 7.4 km/h 72 % 0.0 mm
13:22 20.6 °C 15.2 °C 1014.8 hPa SSW 5.6 km/h 5.6 km/h 71 % 0.0 mm
13:27 20.8 °C 15.3 °C 1014.8 hPa NW 3.7 km/h 3.7 km/h 71 % 0.0 mm
13:32 20.9 °C 15.4 °C 1014.8 hPa WSW 5.6 km/h 5.6 km/h 71 % 0.0 mm
13:37 20.8 °C 14.7 °C 1014.8 hPa SW 5.6 km/h 5.6 km/h 68 % 0.0 mm
13:42 20.6 °C 14.7 °C 1014.8 hPa WSW 3.7 km/h 3.7 km/h 69 % 0.0 mm
13:47 20.3 °C 14.2 °C 1014.8 hPa ENE 3.7 km/h 3.7 km/h 68 % 0.0 mm
13:52 20.2 °C 14.3 °C 1014.8 hPa East 1.9 km/h 1.9 km/h 69 % 0.0 mm
13:57 20.2 °C 14.3 °C 1014.8 hPa NNE 3.7 km/h 3.9 km/h 69 % 0.0 mm
14:02 20.6 °C 14.7 °C 1014.8 hPa SW 5.6 km/h 5.6 km/h 69 % 0.0 mm
14:07 21.2 °C 15.1 °C 1014.8 hPa WSW 6.4 km/h 6.4 km/h 68 % 0.0 mm
14:12 21.3 °C 14.9 °C 1014.8 hPa SW 9.3 km/h 9.3 km/h 67 % 0.0 mm
14:17 21.0 °C 14.6 °C 1014.8 hPa SW 9.3 km/h 9.3 km/h 67 % 0.0 mm
14:22 20.8 °C 14.4 °C 1013.8 hPa WSW 7.4 km/h 7.4 km/h 67 % 0.0 mm
14:23 20.7 °C 14.3 °C 1013.8 hPa SW 7.4 km/h 7.4 km/h 67 % 0.0 mm
14:28 20.7 °C 14.3 °C 1013.8 hPa WSW 2.6 km/h 2.6 km/h 67 % 0.0 mm
14:33 21.4 °C 14.8 °C 1013.8 hPa WSW 9.3 km/h 9.3 km/h 66 % 0.0 mm
14:38 21.0 °C 14.4 °C 1013.8 hPa SW 9.5 km/h 9.5 km/h 66 % 0.0 mm
14:43 21.3 °C 14.4 °C 1013.8 hPa WSW 7.4 km/h 7.4 km/h 65 % 0.0 mm
14:48 21.5 °C 14.4 °C 1013.8 hPa SSW 13.0 km/h 13.0 km/h 64 % 0.0 mm
14:53 21.4 °C 14.3 °C 1013.8 hPa WSW 9.3 km/h 9.3 km/h 64 % 0.0 mm
14:58 21.4 °C 14.8 °C 1013.8 hPa WSW 8.7 km/h 8.7 km/h 66 % 0.0 mm
15:03 21.3 °C 14.4 °C 1013.8 hPa SSW 7.4 km/h 7.4 km/h 65 % 0.0 mm
15:08 21.6 °C 14.7 °C 1013.8 hPa WSW 11.1 km/h 11.1 km/h 65 % 0.0 mm
15:13 21.6 °C 14.7 °C 1013.8 hPa SSW 5.6 km/h 5.6 km/h 65 % 0.0 mm
15:18 21.9 °C 15.0 °C 1013.8 hPa SSW 9.0 km/h 9.0 km/h 65 % 0.0 mm
15:23 21.7 °C 14.6 °C 1013.8 hPa SSW 11.1 km/h 11.1 km/h 64 % 0.0 mm
15:28 21.5 °C 14.4 °C 1013.8 hPa SW 10.0 km/h 10.0 km/h 64 % 0.0 mm
15:33 21.5 °C 14.4 °C 1013.8 hPa SW 5.6 km/h 5.6 km/h 64 % 0.0 mm
15:38 21.6 °C 14.5 °C 1013.8 hPa WSW 9.7 km/h 9.7 km/h 64 % 0.0 mm
15:43 21.8 °C 14.7 °C 1013.8 hPa SW 9.3 km/h 9.3 km/h 64 % 0.0 mm
15:48 21.9 °C 14.6 °C 1013.8 hPa SW 9.3 km/h 9.3 km/h 63 % 0.0 mm
15:53 21.7 °C 14.3 °C 1012.8 hPa SSW 11.1 km/h 11.1 km/h 63 % 0.0 mm
15:58 21.3 °C 13.9 °C 1012.8 hPa West 13.0 km/h 13.0 km/h 63 % 0.0 mm
16:03 21.2 °C 14.1 °C 1012.8 hPa SW 9.3 km/h 9.3 km/h 64 % 0.0 mm
16:08 21.4 °C 14.3 °C 1013.8 hPa SW 7.4 km/h 7.4 km/h 64 % 0.0 mm
16:13 21.5 °C 14.4 °C 1013.8 hPa South 7.4 km/h 7.4 km/h 64 % 0.0 mm
16:18 21.3 °C 14.2 °C 1013.8 hPa WSW 9.3 km/h 9.3 km/h 64 % 0.0 mm
16:23 21.3 °C 14.4 °C 1013.8 hPa SSE 9.3 km/h 9.3 km/h 65 % 0.0 mm
16:28 21.0 °C 13.9 °C 1013.8 hPa SW 9.3 km/h 9.3 km/h 64 % 0.0 mm
16:33 20.9 °C 14.1 °C 1013.8 hPa West 7.4 km/h 7.4 km/h 65 % 0.0 mm
16:38 20.8 °C 14.0 °C 1013.8 hPa SW 5.6 km/h 5.6 km/h 65 % 0.0 mm
16:43 20.7 °C 14.1 °C 1013.8 hPa WSW 5.6 km/h 5.6 km/h 66 % 0.0 mm
16:48 20.2 °C 13.7 °C 1013.8 hPa South 11.1 km/h 11.1 km/h 66 % 0.0 mm
16:54 19.8 °C 13.5 °C 1013.8 hPa SW 5.6 km/h 7.6 km/h 67 % 0.0 mm
16:59 19.6 °C 13.3 °C 1013.8 hPa WSW 7.9 km/h 8.7 km/h 67 % 0.0 mm
17:04 19.3 °C 13.2 °C 1013.8 hPa West 9.3 km/h 9.3 km/h 68 % 0.0 mm
17:09 19.1 °C 13.3 °C 1012.8 hPa SSW 7.4 km/h 7.4 km/h 69 % 0.0 mm
17:14 19.0 °C 13.2 °C 1012.8 hPa South 5.6 km/h 5.6 km/h 69 % 0.0 mm
17:19 18.8 °C 13.4 °C 1012.8 hPa SSW 9.0 km/h 9.0 km/h 71 % 0.0 mm
17:24 18.6 °C 13.2 °C 1013.8 hPa WSW 9.3 km/h 9.3 km/h 71 % 0.0 mm
17:29 18.5 °C 13.2 °C 1013.8 hPa SW 12.2 km/h 12.2 km/h 71 % 0.0 mm
17:34 18.3 °C 13.2 °C 1013.8 hPa WSW 11.1 km/h 11.1 km/h 72 % 0.0 mm
17:39 18.2 °C 13.1 °C 1013.8 hPa SSW 6.4 km/h 6.4 km/h 72 % 0.0 mm
17:44 18.1 °C 12.9 °C 1013.8 hPa SW 9.3 km/h 9.3 km/h 72 % 0.0 mm
17:49 18.0 °C 13.1 °C 1013.8 hPa WSW 11.1 km/h 11.1 km/h 73 % 0.0 mm
17:54 17.9 °C 13.0 °C 1012.8 hPa SW 7.4 km/h 7.4 km/h 73 % 0.0 mm
17:59 17.7 °C 13.0 °C 1012.8 hPa WSW 7.4 km/h 7.4 km/h 74 % 0.0 mm
18:04 17.6 °C 12.9 °C 1012.8 hPa SSW 6.1 km/h 6.4 km/h 74 % 0.0 mm
18:09 17.5 °C 12.8 °C 1013.8 hPa South 9.3 km/h 9.3 km/h 74 % 0.0 mm
18:14 17.4 °C 12.9 °C 1013.8 hPa WSW 9.3 km/h 9.3 km/h 75 % 0.0 mm
18:19 17.3 °C 12.8 °C 1013.8 hPa South 10.3 km/h 10.3 km/h 75 % 0.0 mm
18:24 17.2 °C 12.9 °C 1013.8 hPa SW 7.4 km/h 7.4 km/h 76 % 0.0 mm
18:29 17.1 °C 12.8 °C 1013.8 hPa South 7.4 km/h 7.4 km/h 76 % 0.0 mm
18:34 17.0 °C 12.7 °C 1013.8 hPa SW 5.6 km/h 5.6 km/h 76 % 0.0 mm
18:39 16.9 °C 12.8 °C 1013.8 hPa SW 5.6 km/h 5.6 km/h 77 % 0.0 mm
18:44 16.8 °C 12.9 °C 1013.8 hPa West 5.6 km/h 5.6 km/h 78 % 0.0 mm
18:49 16.8 °C 12.9 °C 1013.8 hPa SW 3.7 km/h   78 % 0.0 mm
18:54 16.7 °C 12.8 °C 1013.8 hPa SW 5.6 km/h 5.6 km/h 78 % 0.0 mm
18:59 16.6 °C 12.7 °C 1013.8 hPa WSW 3.7 km/h 3.7 km/h 78 % 0.0 mm
19:05 16.5 °C 12.8 °C 1013.8 hPa SW 3.7 km/h 3.7 km/h 79 % 0.0 mm
19:10 16.5 °C 12.8 °C 1013.8 hPa SW 3.7 km/h 3.7 km/h 79 % 0.0 mm
19:15 16.4 °C 12.7 °C 1013.8 hPa WSW 3.7 km/h 3.7 km/h 79 % 0.0 mm
19:20 16.3 °C 12.7 °C 1013.8 hPa SW 3.7 km/h 3.7 km/h 79 % 0.0 mm
19:25 16.3 °C 12.7 °C 1014.8 hPa SW 3.7 km/h 3.7 km/h 79 % 0.0 mm
19:30 16.2 °C 12.7 °C 1014.8 hPa SW 5.6 km/h 5.6 km/h 80 % 0.0 mm
19:35 16.2 °C 12.7 °C 1014.8 hPa West 3.7 km/h 3.7 km/h 80 % 0.0 mm
19:40 16.2 °C 12.7 °C 1013.8 hPa SW 1.6 km/h 4.8 km/h 80 % 0.0 mm
19:45 16.1 °C 12.7 °C 1013.8 hPa West 3.7 km/h 3.7 km/h 80 % 0.0 mm
19:50 16.1 °C 12.8 °C 1013.8 hPa SW 3.2 km/h 3.2 km/h 81 % 0.0 mm
19:55 16.1 °C 12.8 °C 1013.8 hPa WSW 1.9 km/h   81 % 0.0 mm
20:00 16.1 °C 12.8 °C 1013.8 hPa Calm   3.2 km/h 81 % 0.0 mm
20:05 16.0 °C 12.7 °C 1013.8 hPa Calm   1.6 km/h 81 % 0.0 mm
20:10 16.0 °C 12.9 °C 1014.8 hPa Calm     82 % 0.0 mm
20:15 15.9 °C 12.8 °C 1014.8 hPa Calm     82 % 0.0 mm
20:20 15.9 °C 12.8 °C 1014.8 hPa NNW 2.6 km/h 2.6 km/h 82 % 0.0 mm
20:25 15.9 °C 12.8 °C 1014.8 hPa Calm   3.2 km/h 82 % 0.0 mm
20:30 15.9 °C 12.8 °C 1014.8 hPa Calm     82 % 0.0 mm
20:35 15.8 °C 12.7 °C 1014.8 hPa Calm     82 % 0.0 mm
20:40 15.8 °C 12.7 °C 1014.8 hPa NW 1.4 km/h   82 % 0.0 mm
20:45 15.8 °C 12.9 °C 1014.8 hPa Calm     83 % 0.0 mm
20:50 15.7 °C 12.8 °C 1014.8 hPa Calm     83 % 0.0 mm
20:55 15.5 °C 12.6 °C 1014.8 hPa NW 1.9 km/h   83 % 0.0 mm
21:00 15.4 °C 12.5 °C 1014.8 hPa Calm     83 % 0.0 mm
21:05 15.4 °C 12.5 °C 1014.8 hPa Calm     83 % 0.0 mm
21:10 15.4 °C 12.5 °C 1014.8 hPa Calm     83 % 0.0 mm
21:15 15.3 °C 12.4 °C 1014.8 hPa Calm     83 % 0.0 mm
21:20 15.3 °C 12.6 °C 1014.8 hPa Calm     84 % 0.0 mm
21:25 15.3 °C 12.6 °C 1014.8 hPa Calm   1.6 km/h 84 % 0.0 mm
21:30 15.3 °C 12.4 °C 1014.8 hPa WNW 1.6 km/h 3.2 km/h 83 % 0.0 mm
21:35 15.3 °C 12.4 °C 1014.8 hPa Calm     83 % 0.0 mm
21:40 15.3 °C 12.6 °C 1014.8 hPa Calm     84 % 0.0 mm
21:45 15.3 °C 12.6 °C 1014.8 hPa Calm     84 % 0.0 mm
21:50 15.3 °C 12.6 °C 1014.8 hPa Calm     84 % 0.0 mm
21:55 15.3 °C 12.6 °C 1014.8 hPa WNW 1.9 km/h 1.9 km/h 84 % 0.0 mm
22:00 15.3 °C 12.6 °C 1014.8 hPa West 3.7 km/h 3.7 km/h 84 % 0.0 mm
22:05 15.3 °C 12.6 °C 1014.8 hPa Calm   1.6 km/h 84 % 0.0 mm
22:10 15.2 °C 12.5 °C 1014.8 hPa Calm     84 % 0.0 mm
22:15 15.1 °C 12.4 °C 1014.8 hPa Calm     84 % 0.0 mm
22:20 15.2 °C 12.5 °C 1014.8 hPa Calm     84 % 0.0 mm
22:25 15.2 °C 12.5 °C 1014.8 hPa Calm     84 % 0.0 mm
22:30 15.2 °C 12.5 °C 1014.8 hPa Calm     84 % 0.0 mm
22:35 15.2 °C 12.5 °C 1014.8 hPa Calm     84 % 0.0 mm
22:40 15.1 °C 12.4 °C 1014.8 hPa Calm     84 % 0.0 mm
22:45 15.0 °C 12.3 °C 1014.8 hPa Calm     84 % 0.0 mm
22:50 14.7 °C 12.0 °C 1014.8 hPa North 1.6 km/h 3.2 km/h 84 % 0.0 mm
22:55 14.6 °C 11.9 °C 1013.8 hPa Calm   1.6 km/h 84 % 0.0 mm
23:00 14.5 °C 12.0 °C 1013.8 hPa Calm     85 % 0.0 mm
23:05 14.4 °C 11.9 °C 1013.8 hPa Calm     85 % 0.0 mm
23:10 14.3 °C 11.8 °C 1014.8 hPa Calm     85 % 0.0 mm
23:15 14.2 °C 11.7 °C 1014.8 hPa Calm     85 % 0.0 mm
23:20 14.2 °C 11.7 °C 1014.8 hPa Calm     85 % 0.0 mm
23:25 14.3 °C 11.8 °C 1014.8 hPa Calm     85 % 0.0 mm
23:30 14.3 °C 12.0 °C 1014.8 hPa Calm     86 % 0.0 mm
23:35 14.2 °C 11.8 °C 1014.8 hPa Calm     86 % 0.0 mm
23:40 14.1 °C 11.8 °C 1014.8 hPa Calm     86 % 0.0 mm
23:45 14.1 °C 11.8 °C 1014.8 hPa Calm     86 % 0.0 mm
23:50 14.0 °C 11.7 °C 1014.8 hPa NNE 1.9 km/h 2.3 km/h 86 % 0.0 mm
23:55 14.0 °C 11.9 °C 1014.8 hPa NNE 2.3 km/h 2.3 km/h 87 % 0.0 mm
Meteo Sesrovires
Elogis d' Weather Underground - 3.5 mb

Guio original per  Jim McMurry - jmcmurry@mwt.net Adaptat per a la plantilla per  Wim van der Kuil - Leuven-Template.eu

Trobareu la nostra informacio del temps tambe a:

Weather Underground

AWEKAS